createdAt,value
2018-07-24T00:02:20.801Z,99.90
2018-07-24T00:04:51.775Z,99.90
2018-07-24T00:07:23.450Z,99.90
2018-07-24T00:09:55.312Z,99.90
2018-07-24T00:12:26.444Z,99.90
2018-07-24T00:14:57.685Z,99.90
2018-07-24T00:17:29.511Z,99.90
2018-07-24T00:20:01.518Z,99.90
2018-07-24T00:22:32.503Z,99.90
2018-07-24T00:25:03.901Z,99.90
2018-07-24T00:27:35.121Z,99.90
2018-07-24T00:30:06.454Z,99.90
2018-07-24T00:32:37.644Z,99.90
2018-07-24T00:35:09.042Z,99.90
2018-07-24T00:37:41.033Z,99.90
2018-07-24T00:40:12.652Z,99.90
2018-07-24T00:42:44.536Z,99.90
2018-07-24T00:45:15.872Z,99.90
2018-07-24T00:47:47.882Z,99.90
2018-07-24T00:50:19.778Z,99.90
2018-07-24T00:52:51.055Z,99.90
2018-07-24T00:55:23.081Z,99.90
2018-07-24T00:57:55.202Z,99.90
2018-07-24T01:00:25.824Z,99.90
2018-07-24T01:02:57.059Z,99.90
2018-07-24T01:05:28.790Z,99.90
2018-07-24T01:08:00.728Z,99.90
2018-07-24T01:10:32.072Z,99.90
2018-07-24T01:13:03.280Z,99.90
2018-07-24T01:15:34.984Z,99.90
2018-07-24T01:18:06.557Z,99.90
2018-07-24T01:20:38.164Z,99.90
2018-07-24T01:23:09.558Z,99.90
2018-07-24T01:25:41.235Z,99.90
2018-07-24T01:28:12.986Z,99.90
2018-07-24T01:30:44.033Z,99.90
2018-07-24T01:33:16.044Z,99.90
2018-07-24T01:35:47.954Z,99.90
2018-07-24T01:38:19.390Z,99.90
2018-07-24T01:40:50.792Z,99.90
2018-07-24T01:43:22.781Z,99.90
2018-07-24T01:45:54.853Z,99.90
2018-07-24T01:48:26.254Z,99.90
2018-07-24T01:50:57.621Z,99.90
2018-07-24T01:53:29.722Z,99.90
2018-07-24T01:56:01.930Z,99.90
2018-07-24T01:58:33.054Z,99.90
2018-07-24T02:01:04.761Z,99.90
2018-07-24T02:03:37.393Z,99.90
2018-07-24T02:06:09.105Z,99.90
2018-07-24T02:08:40.498Z,99.90
2018-07-24T02:11:12.416Z,99.90
2018-07-24T02:13:46.009Z,99.90
2018-07-24T02:16:17.419Z,99.90
2018-07-24T02:18:48.857Z,99.90
2018-07-24T02:21:20.713Z,99.90
2018-07-24T02:23:53.048Z,99.90
2018-07-24T02:26:24.341Z,99.90
2018-07-24T02:28:56.240Z,99.90
2018-07-24T02:31:28.231Z,99.90
2018-07-24T02:34:00.178Z,99.90
2018-07-24T02:36:31.195Z,99.90
2018-07-24T02:39:02.211Z,99.90
2018-07-24T02:41:33.179Z,99.90
2018-07-24T02:44:05.539Z,99.90
2018-07-24T02:46:37.006Z,99.90
2018-07-24T02:49:08.268Z,99.90
2018-07-24T02:51:40.281Z,99.90
2018-07-24T02:54:11.747Z,99.90
2018-07-24T02:56:42.305Z,99.90
2018-07-24T02:59:13.690Z,99.90
2018-07-24T03:01:46.144Z,99.90
2018-07-24T03:04:18.713Z,99.90
2018-07-24T03:06:49.971Z,99.90
2018-07-24T03:09:22.922Z,99.90
2018-07-24T03:11:55.050Z,99.90
2018-07-24T03:14:25.651Z,99.90
2018-07-24T03:16:57.351Z,99.90
2018-07-24T03:19:29.445Z,99.90
2018-07-24T03:22:01.419Z,99.90
2018-07-24T03:24:32.645Z,99.90
2018-07-24T03:27:03.778Z,99.90
2018-07-24T03:29:35.644Z,99.90
2018-07-24T03:32:07.619Z,99.90
2018-07-24T03:34:39.126Z,99.90
2018-07-24T03:37:11.318Z,99.90
2018-07-24T03:39:43.370Z,99.90
2018-07-24T03:42:15.462Z,99.90
2018-07-24T03:44:46.794Z,99.90
2018-07-24T03:47:18.636Z,99.90
2018-07-24T03:49:50.737Z,99.90
2018-07-24T03:52:22.421Z,99.90
2018-07-24T03:54:54.241Z,99.90
2018-07-24T03:57:26.261Z,99.90
2018-07-24T03:59:57.757Z,99.90
2018-07-24T04:02:29.449Z,99.90
2018-07-24T04:05:00.691Z,99.90
2018-07-24T04:07:32.579Z,99.90
2018-07-24T04:10:04.905Z,99.90
2018-07-24T04:12:36.135Z,99.90
2018-07-24T04:15:08.510Z,99.90
2018-07-24T04:17:40.987Z,99.90
2018-07-24T04:20:12.591Z,99.90
2018-07-24T04:22:43.977Z,99.90
2018-07-24T04:25:16.047Z,99.90
2018-07-24T04:27:48.111Z,99.90
2018-07-24T04:30:19.569Z,99.90
2018-07-24T04:32:50.845Z,99.90
2018-07-24T04:35:23.013Z,99.90
2018-07-24T04:37:55.324Z,99.90
2018-07-24T04:40:26.830Z,99.90
2018-07-24T04:42:58.251Z,99.90
2018-07-24T04:45:30.384Z,99.90
2018-07-24T04:48:02.573Z,99.90
2018-07-24T04:50:33.901Z,99.90
2018-07-24T04:53:05.605Z,99.90
2018-07-24T04:55:37.211Z,99.90
2018-07-24T04:58:09.780Z,99.90
2018-07-24T05:00:42.043Z,99.90
2018-07-24T05:03:14.053Z,99.90
2018-07-24T05:05:45.001Z,99.90
2018-07-24T05:08:17.005Z,99.90
2018-07-24T05:10:48.450Z,99.90
2018-07-24T05:13:20.654Z,99.90
2018-07-24T05:15:52.722Z,99.90
2018-07-24T05:18:24.281Z,99.90
2018-07-24T05:20:55.942Z,99.90
2018-07-24T05:23:28.652Z,99.90
2018-07-24T05:26:01.185Z,99.90
2018-07-24T05:28:32.479Z,99.90
2018-07-24T05:31:03.911Z,99.90
2018-07-24T05:33:36.079Z,99.90
2018-07-24T05:36:08.048Z,99.90
2018-07-24T05:38:39.507Z,99.90
2018-07-24T05:41:11.035Z,99.90
2018-07-24T05:43:43.101Z,99.90
2018-07-24T05:46:14.433Z,99.90
2018-07-24T05:48:46.647Z,99.90
2018-07-24T05:51:18.717Z,99.90
2018-07-24T05:53:50.363Z,99.90
2018-07-24T05:56:22.115Z,99.90
2018-07-24T05:58:54.285Z,99.90
2018-07-24T06:01:27.499Z,99.90
2018-07-24T06:03:59.837Z,99.90
2018-07-24T06:06:32.997Z,99.90
2018-07-24T06:09:06.976Z,99.90
2018-07-24T06:12:23.867Z,99.90
2018-07-24T06:14:55.955Z,99.90
2018-07-24T06:17:28.204Z,99.90
2018-07-24T06:20:00.971Z,99.90
2018-07-24T06:22:34.091Z,99.90
2018-07-24T06:25:06.247Z,99.90
2018-07-24T06:27:38.451Z,99.90
2018-07-24T06:30:10.981Z,99.90
2018-07-24T06:32:42.351Z,99.90
2018-07-24T06:35:14.334Z,99.90
2018-07-24T06:37:47.167Z,99.90
2018-07-24T06:40:18.843Z,99.90
2018-07-24T06:42:51.028Z,99.90
2018-07-24T06:45:23.335Z,99.90
2018-07-24T06:47:55.619Z,99.90
2018-07-24T06:50:27.610Z,99.90
2018-07-24T06:53:00.002Z,99.90
2018-07-24T06:55:32.783Z,99.90
2018-07-24T06:58:05.851Z,99.90
2018-07-24T07:00:37.784Z,99.90
2018-07-24T07:03:09.738Z,99.90
2018-07-24T07:08:22.058Z,99.90
2018-07-24T07:13:25.473Z,99.90
2018-07-24T07:15:57.514Z,99.90
2018-07-24T07:18:29.692Z,99.90
2018-07-24T07:21:01.790Z,99.90
2018-07-24T07:23:34.382Z,99.90
2018-07-24T07:26:06.220Z,99.90
2018-07-24T07:28:38.131Z,99.90
2018-07-24T07:31:09.684Z,99.90
2018-07-24T07:33:47.934Z,99.90
2018-07-24T07:36:21.040Z,99.90
2018-07-24T07:39:03.154Z,99.90
2018-07-24T07:41:34.835Z,99.90
2018-07-24T07:44:07.442Z,99.90
2018-07-24T07:46:39.248Z,99.90
2018-07-24T07:49:10.284Z,99.90
2018-07-24T07:51:43.546Z,99.90
2018-07-24T07:54:15.278Z,99.90
2018-07-24T07:56:47.226Z,99.90
2018-07-24T07:59:20.214Z,99.90
2018-07-24T08:01:52.513Z,99.90
2018-07-24T08:04:25.737Z,99.30
2018-07-24T08:06:57.620Z,99.60
2018-07-24T08:09:29.733Z,99.40
2018-07-24T08:12:02.741Z,99.40
2018-07-24T08:14:34.161Z,99.90
2018-07-24T08:17:06.044Z,99.90
2018-07-24T08:19:38.459Z,99.70
2018-07-24T08:22:10.410Z,99.90
2018-07-24T08:24:42.189Z,99.90
2018-07-24T08:27:14.183Z,99.90
2018-07-24T08:29:46.568Z,99.90
2018-07-24T08:32:19.177Z,99.90
2018-07-24T08:34:50.859Z,99.90
2018-07-24T08:37:23.379Z,99.40
2018-07-24T08:39:56.981Z,99.50
2018-07-24T08:42:28.981Z,99.20
2018-07-24T08:45:00.846Z,98.80
2018-07-24T08:47:33.425Z,98.50
2018-07-24T08:50:07.326Z,98.50
2018-07-24T08:52:39.478Z,99.10
2018-07-24T08:55:23.197Z,99.10
2018-07-24T09:01:00.833Z,99.20
2018-07-24T09:03:33.379Z,98.00
2018-07-24T09:06:05.813Z,97.20
2018-07-24T09:08:37.565Z,97.30
2018-07-24T09:11:10.191Z,98.70
2018-07-24T09:13:42.704Z,97.50
2018-07-24T09:16:15.227Z,97.40
2018-07-24T09:18:47.039Z,97.90
2018-07-24T09:21:18.939Z,98.30
2018-07-24T09:23:52.426Z,97.40
2018-07-24T09:26:24.604Z,97.90
2018-07-24T09:28:55.547Z,97.70
2018-07-24T09:31:29.167Z,97.10
2018-07-24T09:34:01.163Z,96.80
2018-07-24T09:36:32.871Z,97.20
2018-07-24T09:39:04.451Z,96.70
2018-07-24T09:41:37.446Z,96.80
2018-07-24T09:44:10.760Z,98.00
2018-07-24T09:46:42.039Z,97.40
2018-07-24T09:49:13.716Z,97.80
2018-07-24T09:51:45.546Z,97.70
2018-07-24T09:54:17.645Z,97.40
2018-07-24T09:56:49.399Z,96.40
2018-07-24T09:59:21.825Z,96.50
2018-07-24T10:01:55.021Z,98.10
2018-07-24T10:04:26.586Z,96.50
2018-07-24T10:06:58.418Z,96.20
2018-07-24T10:09:31.200Z,97.20
2018-07-24T10:12:04.285Z,96.40
2018-07-24T10:14:36.350Z,96.20
2018-07-24T10:17:08.096Z,96.90
2018-07-24T10:19:41.879Z,96.20
2018-07-24T10:22:13.924Z,96.30
2018-07-24T10:24:46.021Z,96.40
2018-07-24T10:27:18.017Z,96.30
2018-07-24T10:29:50.492Z,96.00
2018-07-24T10:32:22.249Z,96.10
2018-07-24T10:34:53.967Z,96.10
2018-07-24T10:37:26.457Z,96.00
2018-07-24T10:40:00.570Z,96.60
2018-07-24T10:42:31.372Z,96.40
2018-07-24T10:45:03.207Z,95.60
2018-07-24T10:47:35.677Z,95.40
2018-07-24T10:50:17.053Z,94.70
2018-07-24T10:52:48.711Z,95.10
2018-07-24T10:55:20.453Z,95.20
2018-07-24T10:57:53.010Z,94.30
2018-07-24T11:00:24.684Z,94.90
2018-07-24T11:02:56.553Z,94.80
2018-07-24T11:05:28.962Z,94.40
2018-07-24T11:08:01.568Z,93.90
2018-07-24T11:10:33.752Z,95.50
2018-07-24T11:13:05.934Z,94.60
2018-07-24T11:15:38.838Z,94.50
2018-07-24T11:18:11.377Z,94.70
2018-07-24T11:20:43.040Z,95.10
2018-07-24T11:23:15.079Z,95.30
2018-07-24T11:25:47.660Z,94.90
2018-07-24T11:28:20.048Z,95.50
2018-07-24T11:30:52.711Z,95.20
2018-07-24T11:33:25.819Z,95.10
2018-07-24T11:35:59.135Z,94.90
2018-07-24T11:38:30.267Z,95.00
2018-07-24T11:41:02.016Z,95.10
2018-07-24T11:43:34.692Z,93.70
2018-07-24T11:46:07.552Z,94.20
2018-07-24T11:48:39.688Z,94.40
2018-07-24T11:51:11.508Z,93.80
2018-07-24T11:53:44.273Z,93.90
2018-07-24T11:56:16.064Z,94.30
2018-07-24T11:58:47.779Z,94.30
2018-07-24T12:01:23.171Z,94.20
2018-07-24T12:03:56.655Z,93.50
2018-07-24T12:06:28.500Z,93.90
2018-07-24T12:09:00.454Z,94.80
2018-07-24T12:11:31.960Z,94.00
2018-07-24T12:14:05.295Z,94.10
2018-07-24T12:16:37.291Z,94.50
2018-07-24T12:19:09.114Z,94.70
2018-07-24T12:21:41.566Z,94.40
2018-07-24T12:24:13.564Z,94.40
2018-07-24T12:36:37.203Z,94.50
2018-07-24T12:39:10.666Z,94.30
2018-07-24T12:41:44.017Z,93.40
2018-07-24T12:44:16.019Z,93.60
2018-07-24T12:46:47.873Z,94.10
2018-07-24T12:49:19.645Z,94.50
2018-07-24T12:51:52.320Z,94.40
2018-07-24T12:54:24.187Z,94.50
2018-07-24T12:56:55.921Z,94.50
2018-07-24T12:59:28.697Z,94.30
2018-07-24T13:04:40.077Z,94.60
2018-07-24T13:07:12.012Z,94.10
2018-07-24T13:09:44.377Z,93.60
2018-07-24T13:12:18.715Z,93.80
2018-07-24T13:14:50.413Z,94.60
2018-07-24T13:17:23.358Z,94.50
2018-07-24T13:19:55.769Z,93.90
2018-07-24T13:22:27.783Z,93.70
2018-07-24T13:24:59.602Z,93.90
2018-07-24T13:27:30.451Z,93.70
2018-07-24T13:30:02.619Z,93.50
2018-07-24T13:32:34.610Z,93.30
2018-07-24T13:35:06.943Z,92.60
2018-07-24T13:37:39.412Z,92.90
2018-07-24T13:40:10.925Z,92.50
2018-07-24T13:42:42.831Z,92.80
2018-07-24T13:45:15.252Z,93.60
2018-07-24T13:47:49.242Z,93.30
2018-07-24T13:50:20.912Z,92.90
2018-07-24T13:52:52.688Z,93.10
2018-07-24T13:57:57.626Z,93.60
2018-07-24T14:00:29.501Z,93.50
2018-07-24T14:03:01.241Z,92.80
2018-07-24T14:08:06.760Z,92.80
2018-07-24T14:10:38.634Z,93.40
2018-07-24T14:13:10.424Z,93.60
2018-07-24T14:15:42.748Z,93.40
2018-07-24T14:18:16.434Z,94.10
2018-07-24T14:20:48.372Z,93.10
2018-07-24T14:23:20.749Z,93.20
2018-07-24T14:25:53.296Z,93.70
2018-07-24T14:28:25.212Z,94.10
2018-07-24T14:30:57.119Z,94.40
2018-07-24T14:33:29.699Z,94.00
2018-07-24T14:36:01.743Z,94.40
2018-07-24T14:38:33.807Z,94.20
2018-07-24T14:41:05.541Z,94.70
2018-07-24T14:43:38.039Z,95.00
2018-07-24T14:46:10.454Z,95.20
2018-07-24T14:48:42.803Z,94.90
2018-07-24T14:51:14.708Z,95.40
2018-07-24T14:53:48.565Z,95.20
2018-07-24T14:56:20.770Z,95.70
2018-07-24T14:58:53.147Z,95.10
2018-07-24T15:01:24.929Z,95.20
2018-07-24T15:03:57.287Z,95.30
2018-07-24T15:06:29.402Z,95.60
2018-07-24T15:09:02.671Z,94.60
2018-07-24T15:11:35.214Z,95.40
2018-07-24T15:14:07.863Z,95.20
2018-07-24T15:16:39.709Z,95.40
2018-07-24T15:19:11.396Z,95.20
2018-07-24T15:21:44.007Z,95.20
2018-07-24T15:24:22.223Z,95.50
2018-07-24T15:26:54.053Z,95.10
2018-07-24T15:29:26.675Z,95.50
2018-07-24T15:31:59.141Z,95.10
2018-07-24T15:34:31.230Z,95.10
2018-07-24T15:37:02.918Z,95.30
2018-07-24T15:39:37.113Z,95.30
2018-07-24T15:42:09.173Z,95.00
2018-07-24T15:44:40.857Z,95.20
2018-07-24T15:47:13.071Z,95.20
2018-07-24T15:49:45.943Z,96.10
2018-07-24T15:52:25.266Z,95.50
2018-07-24T15:54:58.027Z,95.40
2018-07-24T15:57:30.347Z,95.10
2018-07-24T16:00:03.179Z,95.60
2018-07-24T16:02:35.061Z,96.20
2018-07-24T16:05:08.533Z,96.80
2018-07-24T16:07:40.505Z,96.20
2018-07-24T16:10:11.855Z,96.10
2018-07-24T16:12:43.605Z,96.40
2018-07-24T16:15:21.611Z,96.30
2018-07-24T16:17:54.100Z,96.90
2018-07-24T16:20:26.437Z,96.60
2018-07-24T16:22:58.598Z,95.90
2018-07-24T16:25:30.908Z,96.30
2018-07-24T16:28:03.678Z,96.40
2018-07-24T16:30:37.772Z,96.90
2018-07-24T16:33:10.282Z,96.90
2018-07-24T16:35:42.893Z,97.20
2018-07-24T16:38:16.922Z,96.60
2018-07-24T16:40:49.152Z,97.40
2018-07-24T16:43:20.702Z,97.00
2018-07-24T16:45:53.324Z,97.00
2018-07-24T16:48:25.358Z,96.90
2018-07-24T16:50:57.857Z,96.80
2018-07-24T16:53:30.202Z,96.90
2018-07-24T16:56:02.350Z,96.90
2018-07-24T16:58:35.575Z,97.20
2018-07-24T17:01:07.692Z,96.70
2018-07-24T17:03:40.431Z,96.60
2018-07-24T17:06:12.009Z,97.10
2018-07-24T17:08:44.034Z,97.30
2018-07-24T17:11:16.744Z,97.40
2018-07-24T17:13:49.789Z,97.30
2018-07-24T17:16:23.340Z,97.60
2018-07-24T17:19:23.618Z,97.50
2018-07-24T17:22:00.825Z,98.00
2018-07-24T17:24:50.930Z,97.20
2018-07-24T17:37:08.143Z,97.90
2018-07-24T17:39:40.168Z,97.70
2018-07-24T17:42:13.592Z,98.00
2018-07-24T17:44:46.576Z,98.00
2018-07-24T17:47:19.281Z,98.20
2018-07-24T17:49:51.353Z,98.30
2018-07-24T17:52:23.293Z,98.20
2018-07-24T17:54:55.200Z,98.70
2018-07-24T17:57:27.971Z,98.70
2018-07-24T18:00:00.488Z,98.40
2018-07-24T18:02:31.678Z,98.50
2018-07-24T18:05:03.656Z,99.00
2018-07-24T18:07:36.441Z,98.80
2018-07-24T18:10:08.206Z,99.20
2018-07-24T18:12:41.721Z,99.50
2018-07-24T18:15:13.653Z,99.90
2018-07-24T18:17:46.278Z,99.90
2018-07-24T18:20:18.244Z,99.70
2018-07-24T18:22:50.476Z,99.90
2018-07-24T18:25:23.492Z,99.90
2018-07-24T18:27:56.373Z,99.90
2018-07-24T18:30:28.388Z,99.90
2018-07-24T18:33:00.199Z,99.90
2018-07-24T18:35:32.801Z,99.90
2018-07-24T18:38:04.934Z,99.90
2018-07-24T18:40:38.242Z,99.90
2018-07-24T18:43:10.314Z,99.90
2018-07-24T18:45:43.051Z,99.90
2018-07-24T18:48:15.138Z,99.90
2018-07-24T18:50:47.487Z,99.90
2018-07-24T18:53:20.042Z,99.90
2018-07-24T18:55:52.565Z,99.90
2018-07-24T18:58:25.010Z,99.90
2018-07-24T19:00:57.126Z,99.90
2018-07-24T19:03:29.632Z,99.90
2018-07-24T19:06:02.497Z,99.90
2018-07-24T19:08:35.024Z,99.90
2018-07-24T19:11:07.547Z,99.90
2018-07-24T19:13:43.052Z,99.90
2018-07-24T19:16:14.216Z,99.90
2018-07-24T19:18:46.508Z,99.90
2018-07-24T19:21:19.243Z,99.90
2018-07-24T19:23:51.272Z,99.90
2018-07-24T19:49:24.314Z,99.90
2018-07-24T19:51:57.608Z,99.90
2018-07-24T19:54:29.576Z,99.90
2018-07-24T19:57:01.686Z,99.90
2018-07-24T19:59:33.746Z,99.90
2018-07-24T20:02:05.868Z,99.90
2018-07-24T20:04:38.064Z,99.90
2018-07-24T20:07:10.293Z,99.90
2018-07-24T20:09:43.439Z,99.90
2018-07-24T20:12:30.267Z,99.90
2018-07-24T20:53:05.404Z,99.90
2018-07-24T20:55:38.075Z,99.90
2018-07-24T20:58:38.811Z,99.90
2018-07-24T21:01:11.958Z,99.90
2018-07-24T21:03:44.154Z,99.90
2018-07-24T21:06:16.068Z,99.90
2018-07-24T21:08:48.580Z,99.90
2018-07-24T21:14:36.856Z,99.90
2018-07-24T21:17:08.150Z,99.90
2018-07-24T21:19:40.909Z,99.90
2018-07-24T21:22:13.120Z,99.90
2018-07-24T21:24:45.049Z,99.90
2018-07-24T21:28:22.794Z,99.90
2018-07-24T21:30:54.616Z,99.90
2018-07-24T21:33:27.104Z,99.90
2018-07-24T21:35:59.136Z,99.90
2018-07-24T21:38:31.529Z,99.90
2018-07-24T21:41:03.430Z,99.90
2018-07-24T21:43:35.379Z,99.90
2018-07-24T21:46:08.623Z,99.90
2018-07-24T21:48:40.398Z,99.90
2018-07-24T21:51:12.380Z,99.90
2018-07-24T21:53:44.836Z,99.90
2018-07-24T21:56:16.556Z,99.90
2018-07-24T21:58:48.274Z,99.90
2018-07-24T22:01:23.709Z,99.90
2018-07-24T22:03:56.269Z,99.90
2018-07-24T22:06:27.495Z,99.90
2018-07-24T22:08:59.471Z,99.90
2018-07-24T22:11:31.376Z,99.90
2018-07-24T22:14:02.854Z,99.90
2018-07-24T22:16:35.056Z,99.90
2018-07-24T22:19:06.818Z,99.90
2018-07-24T22:21:39.362Z,99.90
2018-07-24T22:24:11.562Z,99.90
2018-07-24T22:26:43.493Z,99.90
2018-07-24T22:29:15.914Z,99.90
2018-07-24T22:31:49.737Z,99.90
2018-07-24T22:34:22.062Z,99.90
2018-07-24T22:36:53.820Z,99.90
2018-07-24T22:39:26.582Z,99.90
2018-07-24T22:41:59.188Z,99.90
2018-07-24T22:44:31.090Z,99.90
2018-07-24T22:47:02.988Z,99.90
2018-07-24T22:49:53.495Z,99.90
2018-07-24T22:52:36.113Z,99.90
2018-07-24T22:55:07.816Z,99.90
2018-07-24T22:57:38.719Z,99.90
2018-07-24T23:00:10.716Z,99.90
2018-07-24T23:02:41.747Z,99.90
2018-07-24T23:05:12.852Z,99.90
2018-07-24T23:07:44.953Z,99.90
2018-07-24T23:10:16.491Z,99.90
2018-07-24T23:12:47.833Z,99.90
2018-07-24T23:15:20.435Z,99.90
2018-07-24T23:17:51.767Z,99.90
2018-07-24T23:20:22.892Z,99.90
2018-07-24T23:22:54.457Z,99.90
2018-07-24T23:25:27.979Z,99.90
2018-07-24T23:27:59.171Z,99.90
2018-07-24T23:30:34.318Z,99.90
2018-07-24T23:33:08.678Z,99.90
2018-07-24T23:35:41.251Z,99.90
2018-07-24T23:38:13.419Z,99.90
2018-07-24T23:40:44.748Z,99.90
2018-07-24T23:43:16.921Z,99.90
2018-07-24T23:45:48.839Z,99.90
2018-07-24T23:48:22.745Z,99.90
2018-07-24T23:50:54.470Z,99.90
2018-07-24T23:53:25.682Z,99.90
2018-07-24T23:55:57.007Z,99.90
2018-07-24T23:58:28.459Z,99.90
